createdAt,value
2017-06-05T00:01:48.031Z,0.20
2017-06-05T00:04:22.680Z,0.20
2017-06-05T00:06:56.727Z,0.30
2017-06-05T00:09:31.114Z,0.20
2017-06-05T00:15:04.787Z,0.20
2017-06-05T00:17:38.644Z,0.20
2017-06-05T00:20:12.432Z,0.20
2017-06-05T00:22:46.407Z,1.07
2017-06-05T00:25:20.622Z,4.10
2017-06-05T00:27:54.773Z,4.90
2017-06-05T00:30:28.815Z,4.27
2017-06-05T00:33:00.184Z,4.40
2017-06-05T00:35:35.200Z,4.47
2017-06-05T00:38:10.306Z,4.70
2017-06-05T00:40:54.863Z,4.90
2017-06-05T00:43:40.001Z,4.80
2017-06-05T00:46:18.110Z,4.20
2017-06-05T00:48:52.156Z,4.87
2017-06-05T00:51:26.335Z,5.00
2017-06-05T00:54:10.767Z,4.43
2017-06-05T00:56:45.185Z,4.37
2017-06-05T00:59:19.620Z,4.07
2017-06-05T01:01:53.685Z,4.87
2017-06-05T01:04:25.007Z,4.57
2017-06-05T01:06:59.793Z,4.90
2017-06-05T01:09:33.863Z,3.67
2017-06-05T01:12:07.647Z,4.40
2017-06-05T01:14:41.702Z,4.40
2017-06-05T01:17:18.104Z,4.20
2017-06-05T01:19:52.176Z,4.00
2017-06-05T01:22:26.446Z,3.87
2017-06-05T01:25:04.527Z,4.00
2017-06-05T01:27:38.611Z,4.30
2017-06-05T01:30:12.583Z,5.37
2017-06-05T01:32:57.769Z,4.67
2017-06-05T01:35:31.871Z,5.40
2017-06-05T01:38:03.719Z,4.80
2017-06-05T01:40:37.644Z,5.00
2017-06-05T01:43:11.512Z,5.10
2017-06-05T01:45:45.507Z,5.53
2017-06-05T01:48:16.651Z,4.87
2017-06-05T01:50:44.752Z,5.80
2017-06-05T01:53:20.180Z,5.03
2017-06-05T01:56:04.733Z,5.77
2017-06-05T01:58:36.300Z,5.77
2017-06-05T02:01:10.961Z,5.30
2017-06-05T02:03:45.534Z,4.90
2017-06-05T02:06:19.389Z,5.40
2017-06-05T02:08:53.262Z,5.27
2017-06-05T02:11:29.255Z,4.90
2017-06-05T02:14:03.443Z,5.50
2017-06-05T02:16:38.027Z,5.10
2017-06-05T02:19:12.524Z,5.30
2017-06-05T02:21:51.015Z,5.70
2017-06-05T02:24:25.416Z,6.00
2017-06-05T02:26:57.226Z,5.03
2017-06-05T02:29:33.920Z,5.33
2017-06-05T02:32:07.755Z,6.00
2017-06-05T02:34:42.655Z,5.80
2017-06-05T02:37:16.903Z,5.53
2017-06-05T02:40:01.890Z,5.80
2017-06-05T02:42:38.465Z,6.73
2017-06-05T02:45:12.549Z,6.00
2017-06-05T02:47:47.643Z,6.30
2017-06-05T02:50:21.626Z,6.70
2017-06-05T02:52:56.764Z,6.70
2017-06-05T02:55:41.320Z,5.67
2017-06-05T02:58:15.284Z,6.60
2017-06-05T03:00:49.506Z,6.40
2017-06-05T03:03:24.277Z,7.10
2017-06-05T03:06:00.234Z,7.20
2017-06-05T03:08:32.097Z,6.60
2017-06-05T03:11:05.900Z,6.40
2017-06-05T03:13:42.113Z,6.53
2017-06-05T03:16:16.667Z,6.37
2017-06-05T03:19:01.107Z,5.80
2017-06-05T03:21:35.171Z,5.43
2017-06-05T03:24:09.020Z,5.33
2017-06-05T03:26:43.281Z,5.17
2017-06-05T03:29:17.494Z,5.17
2017-06-05T03:31:51.730Z,5.07
2017-06-05T03:34:23.218Z,5.63
2017-06-05T03:36:57.698Z,4.40
2017-06-05T03:39:35.970Z,4.27
2017-06-05T03:42:07.242Z,3.60
2017-06-05T03:44:42.005Z,4.13
2017-06-05T03:47:17.766Z,3.20
2017-06-05T03:50:02.380Z,3.40
2017-06-05T03:52:34.022Z,3.83
2017-06-05T03:55:07.871Z,3.57
2017-06-05T03:57:45.818Z,3.70
2017-06-05T04:00:19.692Z,3.00
2017-06-05T04:02:54.060Z,3.40
2017-06-05T04:05:28.030Z,4.00
2017-06-05T04:08:07.886Z,3.77
2017-06-05T04:10:41.731Z,3.30
2017-06-05T04:13:23.164Z,3.93
2017-06-05T04:15:59.119Z,3.30
2017-06-05T04:18:33.827Z,3.23
2017-06-05T04:21:09.241Z,3.37
2017-06-05T04:23:43.295Z,3.10
2017-06-05T04:26:21.066Z,3.47
2017-06-05T04:28:55.503Z,3.27
2017-06-05T04:31:29.609Z,3.40
2017-06-05T04:34:14.237Z,2.70
2017-06-05T04:36:59.150Z,2.70
2017-06-05T04:39:38.826Z,3.60
2017-06-05T04:42:13.090Z,3.03
2017-06-05T04:44:44.450Z,2.90
2017-06-05T04:47:29.770Z,2.77
2017-06-05T04:50:04.305Z,2.83
2017-06-05T04:52:38.442Z,2.73
2017-06-05T04:55:12.416Z,2.80
2017-06-05T04:57:46.610Z,2.63
2017-06-05T05:00:17.954Z,2.67
2017-06-05T05:02:51.829Z,2.40
2017-06-05T05:05:26.872Z,2.50
2017-06-05T05:08:01.326Z,2.60
2017-06-05T05:10:35.531Z,2.63
2017-06-05T05:13:21.691Z,2.40
2017-06-05T05:15:55.576Z,2.50
2017-06-05T05:18:27.047Z,2.60
2017-06-05T05:21:01.826Z,2.60
2017-06-05T05:23:35.898Z,2.60
2017-06-05T05:26:10.167Z,2.80
2017-06-05T05:28:44.315Z,3.00
2017-06-05T05:31:22.792Z,3.17
2017-06-05T05:34:00.820Z,3.10
2017-06-05T05:36:35.499Z,3.87
2017-06-05T05:39:07.120Z,3.40
2017-06-05T05:41:40.903Z,2.57
2017-06-05T05:44:16.159Z,3.13
2017-06-05T05:46:50.047Z,2.67
2017-06-05T05:49:26.938Z,3.13
2017-06-05T05:52:01.067Z,3.67
2017-06-05T05:54:35.345Z,2.87
2017-06-05T05:57:10.089Z,2.50
2017-06-05T05:59:44.137Z,2.90
2017-06-05T06:02:20.483Z,2.73
2017-06-05T06:05:07.375Z,2.90
2017-06-05T06:07:38.551Z,3.03
2017-06-05T06:10:12.734Z,2.40
2017-06-05T06:12:43.967Z,2.43
2017-06-05T06:15:15.906Z,2.13
2017-06-05T06:17:49.783Z,2.90
2017-06-05T06:20:24.664Z,2.37
2017-06-05T06:22:58.984Z,2.33
2017-06-05T06:25:44.210Z,2.30
2017-06-05T06:28:18.919Z,2.13
2017-06-05T06:30:53.281Z,2.23
2017-06-05T06:33:25.181Z,2.00
2017-06-05T06:35:59.917Z,2.10
2017-06-05T06:38:34.391Z,1.63
2017-06-05T06:41:08.346Z,1.83
2017-06-05T06:43:39.951Z,1.83
2017-06-05T06:46:24.289Z,1.80
2017-06-05T06:48:58.752Z,2.27
2017-06-05T06:51:32.495Z,1.60
2017-06-05T06:54:10.652Z,1.83
2017-06-05T06:56:45.321Z,2.40
2017-06-05T06:59:19.599Z,2.17
2017-06-05T07:01:51.047Z,1.70
2017-06-05T07:04:25.042Z,1.83
2017-06-05T07:06:56.796Z,2.17
2017-06-05T07:09:31.946Z,2.47
2017-06-05T07:12:05.895Z,2.70
2017-06-05T07:14:41.142Z,2.27
2017-06-05T07:17:14.991Z,2.20
2017-06-05T07:19:50.031Z,1.80
2017-06-05T07:22:21.381Z,1.93
2017-06-05T07:25:01.831Z,1.23
2017-06-05T07:27:36.304Z,1.97
2017-06-05T07:30:12.718Z,2.00
2017-06-05T07:32:49.279Z,1.93
2017-06-05T07:35:24.087Z,1.83
2017-06-05T07:37:58.668Z,1.43
2017-06-05T07:40:36.656Z,1.73
2017-06-05T07:43:10.772Z,1.60
2017-06-05T07:45:48.865Z,1.60
2017-06-05T07:48:22.832Z,1.20
2017-06-05T07:51:12.104Z,1.50
2017-06-05T07:53:59.861Z,1.30
2017-06-05T07:56:33.695Z,1.60
2017-06-05T07:59:04.822Z,2.27
2017-06-05T08:01:40.706Z,1.17
2017-06-05T08:04:14.725Z,1.30
2017-06-05T08:06:48.667Z,1.30
2017-06-05T08:09:26.483Z,1.43
2017-06-05T08:12:01.657Z,1.13
2017-06-05T08:14:36.900Z,1.23
2017-06-05T08:17:10.720Z,1.03
2017-06-05T08:19:45.303Z,1.10
2017-06-05T08:22:20.647Z,1.27
2017-06-05T08:24:55.409Z,1.40
2017-06-05T08:27:26.755Z,0.90
2017-06-05T08:30:02.562Z,1.20
2017-06-05T08:32:36.878Z,1.43
2017-06-05T08:35:21.808Z,1.30
2017-06-05T08:38:06.703Z,1.20
2017-06-05T08:40:41.274Z,1.30
2017-06-05T08:43:15.550Z,1.27
2017-06-05T08:45:53.345Z,1.00
2017-06-05T08:48:34.483Z,1.10
2017-06-05T08:51:09.826Z,1.13
2017-06-05T08:53:55.098Z,1.10
2017-06-05T08:56:29.931Z,1.40
2017-06-05T08:59:06.338Z,1.40
2017-06-05T09:01:35.435Z,1.40
2017-06-05T09:04:11.988Z,1.13
2017-06-05T09:06:46.335Z,1.20
2017-06-05T09:09:20.642Z,1.07
2017-06-05T09:11:54.862Z,1.33
2017-06-05T09:14:29.177Z,1.40
2017-06-05T09:17:03.033Z,1.70
2017-06-05T09:19:42.100Z,1.17
2017-06-05T09:22:16.298Z,1.00
2017-06-05T09:24:50.238Z,1.00
2017-06-05T09:27:27.279Z,1.13
2017-06-05T09:30:00.492Z,1.00
2017-06-05T09:32:35.154Z,1.17
2017-06-05T09:35:13.717Z,0.90
2017-06-05T09:37:51.654Z,1.10
2017-06-05T09:40:30.258Z,1.30
2017-06-05T09:43:04.135Z,1.10
2017-06-05T09:45:38.506Z,1.07
2017-06-05T09:48:12.262Z,1.10
2017-06-05T09:50:50.186Z,0.90
2017-06-05T09:53:24.116Z,1.20
2017-06-05T09:56:08.622Z,0.93
2017-06-05T09:58:53.782Z,1.27
2017-06-05T10:01:28.023Z,0.90
2017-06-05T10:04:13.083Z,1.30
2017-06-05T10:06:48.271Z,1.20
2017-06-05T10:09:22.550Z,1.20
2017-06-05T10:12:00.342Z,1.20
2017-06-05T10:14:38.523Z,1.00
2017-06-05T10:17:23.347Z,1.00
2017-06-05T10:22:51.856Z,1.23
2017-06-05T10:25:27.737Z,1.23
2017-06-05T10:27:59.014Z,1.07
2017-06-05T10:30:36.328Z,1.10
2017-06-05T10:33:07.846Z,1.10
2017-06-05T10:35:43.079Z,1.20
2017-06-05T10:38:17.774Z,1.30
2017-06-05T10:40:45.885Z,1.27
2017-06-05T10:43:33.347Z,1.40
2017-06-05T10:46:11.778Z,1.20
2017-06-05T10:48:45.796Z,1.17
2017-06-05T10:51:21.753Z,1.00
2017-06-05T10:53:55.894Z,1.00
2017-06-05T10:56:29.828Z,1.20
2017-06-05T10:59:14.641Z,0.97
2017-06-05T11:01:46.315Z,1.27
2017-06-05T11:04:21.103Z,1.50
2017-06-05T11:06:55.700Z,1.20
2017-06-05T11:09:29.741Z,1.30
2017-06-05T11:12:07.542Z,1.70
2017-06-05T11:14:43.782Z,1.30
2017-06-05T11:17:31.132Z,1.10
2017-06-05T11:20:14.001Z,1.10
2017-06-05T11:22:59.226Z,1.30
2017-06-05T11:25:35.861Z,1.13
2017-06-05T11:28:11.798Z,1.07
2017-06-05T11:30:49.515Z,1.40
2017-06-05T11:33:35.183Z,1.07
2017-06-05T11:36:09.690Z,1.20
2017-06-05T11:38:43.751Z,1.10
2017-06-05T11:41:17.625Z,1.50
2017-06-05T11:43:53.776Z,1.07
2017-06-05T11:46:29.870Z,1.03
2017-06-05T11:49:03.941Z,0.93
2017-06-05T11:51:40.344Z,1.33
2017-06-05T11:54:27.863Z,1.17
2017-06-05T11:57:02.126Z,1.13
2017-06-05T11:59:39.853Z,1.10
2017-06-05T12:02:11.974Z,0.90
2017-06-05T12:04:46.954Z,1.20
2017-06-05T12:07:20.735Z,1.27
2017-06-05T12:10:00.229Z,1.30
2017-06-05T12:12:30.166Z,1.00
2017-06-05T12:15:01.304Z,1.20
2017-06-05T12:17:33.891Z,1.27
2017-06-05T12:20:08.604Z,1.63
2017-06-05T12:22:44.862Z,1.40
2017-06-05T12:25:21.431Z,1.50
2017-06-05T12:27:55.965Z,1.23
2017-06-05T12:30:36.515Z,1.27
2017-06-05T12:33:14.851Z,1.10
2017-06-05T12:35:49.531Z,1.17
2017-06-05T12:38:25.901Z,1.30
2017-06-05T12:41:03.740Z,1.20
2017-06-05T12:43:40.069Z,0.80
2017-06-05T12:46:14.187Z,0.90
2017-06-05T12:48:48.090Z,1.20
2017-06-05T12:51:28.930Z,1.60
2017-06-05T12:54:03.298Z,1.03
2017-06-05T12:56:37.859Z,1.73
2017-06-05T12:59:24.671Z,1.17
2017-06-05T13:02:03.217Z,1.10
2017-06-05T13:04:41.413Z,1.43
2017-06-05T13:07:16.524Z,1.43
2017-06-05T13:09:57.846Z,1.10
2017-06-05T13:12:42.203Z,1.40
2017-06-05T13:15:28.212Z,1.17
2017-06-05T13:18:03.655Z,1.17
2017-06-05T13:20:44.478Z,0.90
2017-06-05T13:23:19.092Z,1.20
2017-06-05T13:26:03.659Z,1.13
2017-06-05T13:28:45.122Z,1.50
2017-06-05T13:31:30.242Z,1.40
2017-06-05T13:34:05.008Z,0.90
2017-06-05T13:36:37.234Z,1.10
2017-06-05T13:39:13.358Z,1.10
2017-06-05T13:41:57.106Z,1.10
2017-06-05T13:44:32.255Z,0.90
2017-06-05T13:47:19.779Z,1.00
2017-06-05T13:50:10.491Z,1.00
2017-06-05T13:52:48.689Z,0.90
2017-06-05T13:55:26.363Z,1.10
2017-06-05T13:58:00.704Z,0.73
2017-06-05T14:00:31.889Z,1.00
2017-06-05T14:03:19.932Z,1.03
2017-06-05T14:05:58.384Z,0.80
2017-06-05T14:08:32.464Z,0.93
2017-06-05T14:11:17.540Z,0.97
2017-06-05T14:13:55.374Z,1.23
2017-06-05T14:16:30.541Z,0.90
2017-06-05T14:19:03.188Z,0.77
2017-06-05T14:21:31.325Z,0.70
2017-06-05T14:24:06.937Z,0.60
2017-06-05T14:26:44.709Z,1.20
2017-06-05T14:29:19.091Z,1.37
2017-06-05T14:31:53.243Z,0.90
2017-06-05T14:34:27.192Z,1.43
2017-06-05T14:37:01.152Z,1.00
2017-06-05T14:39:36.546Z,0.83
2017-06-05T14:42:15.414Z,0.70
2017-06-05T14:44:50.396Z,0.80
2017-06-05T14:47:24.438Z,1.10
2017-06-05T14:50:00.342Z,1.03
2017-06-05T14:52:38.286Z,1.00
2017-06-05T14:55:21.665Z,1.00
2017-06-05T14:57:55.703Z,0.70
2017-06-05T15:00:30.229Z,1.10
2017-06-05T15:03:04.492Z,1.00
2017-06-05T15:05:37.024Z,0.80
2017-06-05T15:08:12.566Z,0.70
2017-06-05T15:10:44.123Z,0.90
2017-06-05T15:13:12.235Z,0.73
2017-06-05T15:15:46.226Z,0.80
2017-06-05T15:18:20.790Z,0.80
2017-06-05T15:20:52.329Z,0.97
2017-06-05T15:23:26.215Z,0.90
2017-06-05T15:25:57.694Z,0.90
2017-06-05T15:28:32.569Z,1.10
2017-06-05T15:34:23.494Z,1.20
2017-06-05T15:37:02.087Z,1.03
2017-06-05T15:42:32.297Z,1.10
2017-06-05T15:45:08.721Z,1.20
2017-06-05T15:47:54.101Z,0.80
2017-06-05T15:50:39.042Z,0.80
2017-06-05T15:53:30.675Z,0.83
2017-06-05T15:56:15.691Z,1.03
2017-06-05T15:58:58.758Z,1.20
2017-06-05T16:01:50.337Z,0.77
2017-06-05T16:04:30.946Z,1.00
2017-06-05T16:07:15.871Z,0.70
2017-06-05T16:09:52.230Z,1.30
2017-06-05T16:12:30.666Z,0.70
2017-06-05T16:15:15.645Z,0.90
2017-06-05T16:18:00.667Z,0.90
2017-06-05T16:20:50.619Z,1.00
2017-06-05T16:23:36.563Z,1.00
2017-06-05T16:29:23.487Z,1.27
2017-06-05T16:32:01.536Z,1.00
2017-06-05T16:34:35.529Z,1.10
2017-06-05T16:37:20.512Z,0.80
2017-06-05T16:40:04.983Z,0.97
2017-06-05T16:42:47.021Z,0.67
2017-06-05T16:45:34.935Z,1.00
2017-06-05T16:48:25.462Z,1.23
2017-06-05T16:51:06.301Z,0.80
2017-06-05T16:53:37.891Z,1.03
2017-06-05T16:56:24.405Z,0.93
2017-06-05T16:58:58.803Z,1.20
2017-06-05T17:01:56.842Z,0.90
2017-06-05T17:04:29.009Z,0.80
2017-06-05T17:07:16.044Z,0.70
2017-06-05T17:09:56.858Z,0.80
2017-06-05T17:15:35.665Z,0.97
2017-06-05T17:21:10.144Z,0.90
2017-06-05T17:23:52.506Z,0.80
2017-06-05T17:26:32.571Z,0.90
2017-06-05T17:31:59.732Z,0.83
2017-06-05T17:34:35.181Z,0.70
2017-06-05T17:37:11.671Z,0.77
2017-06-05T17:39:57.878Z,0.83
2017-06-05T17:42:43.153Z,0.90
2017-06-05T17:45:15.695Z,0.83
2017-06-05T17:47:54.193Z,0.80
2017-06-05T17:50:29.958Z,0.87
2017-06-05T17:53:06.231Z,1.00
2017-06-05T17:55:38.490Z,0.80
2017-06-05T17:58:19.520Z,0.80
2017-06-05T18:00:52.213Z,0.83
2017-06-05T18:03:23.534Z,1.47
2017-06-05T18:05:57.374Z,0.80
2017-06-05T18:08:32.545Z,1.00
2017-06-05T18:11:13.196Z,1.00
2017-06-05T18:13:50.021Z,0.80
2017-06-05T18:16:25.088Z,0.90
2017-06-05T18:19:00.303Z,0.80
2017-06-05T18:21:42.759Z,0.83
2017-06-05T18:24:20.706Z,0.80
2017-06-05T18:26:53.746Z,1.10
2017-06-05T18:29:36.618Z,1.10
2017-06-05T18:32:13.576Z,0.93
2017-06-05T18:34:47.467Z,0.90
2017-06-05T18:37:23.327Z,1.03
2017-06-05T18:39:57.905Z,1.07
2017-06-05T18:42:39.533Z,0.87
2017-06-05T18:45:20.888Z,1.00
2017-06-05T18:48:01.779Z,0.77
2017-06-05T18:50:48.608Z,1.07
2017-06-05T18:53:22.495Z,1.30
2017-06-05T18:55:56.903Z,0.87
2017-06-05T18:58:28.514Z,1.43
2017-06-05T19:01:02.284Z,1.20
2017-06-05T19:03:37.087Z,1.40
2017-06-05T19:06:09.706Z,1.43
2017-06-05T19:08:44.515Z,1.20
2017-06-05T19:11:25.289Z,0.90
2017-06-05T19:13:57.789Z,1.00
2017-06-05T19:16:35.903Z,0.80
2017-06-05T19:22:20.625Z,0.93
2017-06-05T19:24:56.088Z,0.90
2017-06-05T19:27:27.489Z,1.03
2017-06-05T19:30:01.888Z,1.50
2017-06-05T19:32:34.223Z,1.30
2017-06-05T19:35:06.134Z,1.13
2017-06-05T19:37:39.290Z,1.03
2017-06-05T19:40:15.134Z,1.30
2017-06-05T19:42:56.140Z,1.50
2017-06-05T19:45:31.223Z,1.20
2017-06-05T19:48:09.325Z,1.20
2017-06-05T19:50:41.462Z,1.13
2017-06-05T19:53:16.424Z,1.27
2017-06-05T19:56:01.891Z,1.37
2017-06-05T19:58:36.703Z,1.30
2017-06-05T20:01:11.251Z,1.67
2017-06-05T20:03:53.520Z,1.33
2017-06-05T20:06:28.690Z,1.40
2017-06-05T20:09:01.159Z,1.30
2017-06-05T20:11:35.294Z,1.77
2017-06-05T20:14:17.192Z,1.30
2017-06-05T20:16:56.522Z,1.70
2017-06-05T20:19:27.780Z,1.30
2017-06-05T20:22:01.808Z,1.40
2017-06-05T20:24:34.638Z,1.40
2017-06-05T20:27:20.802Z,1.77
2017-06-05T20:29:56.707Z,1.77
2017-06-05T20:35:44.259Z,1.67
2017-06-05T20:38:18.151Z,1.73
2017-06-05T20:41:03.940Z,1.50
2017-06-05T20:43:40.536Z,1.57
2017-06-05T20:46:16.805Z,1.70
2017-06-05T20:48:50.864Z,1.47
2017-06-05T20:51:29.240Z,1.50
2017-06-05T20:54:00.363Z,1.53
2017-06-05T20:56:39.084Z,1.80
2017-06-05T20:59:10.816Z,1.73
2017-06-05T21:01:50.904Z,1.70
2017-06-05T21:04:27.698Z,2.03
2017-06-05T21:07:01.443Z,1.50
2017-06-05T21:09:32.471Z,1.70
2017-06-05T21:12:07.460Z,1.70
2017-06-05T21:14:39.797Z,1.73
2017-06-05T21:17:15.367Z,1.60
2017-06-05T21:19:52.000Z,1.87
2017-06-05T21:22:25.105Z,1.43
2017-06-05T21:25:04.046Z,1.80
2017-06-05T21:27:37.108Z,1.23
2017-06-05T21:30:18.199Z,1.80
2017-06-05T21:32:53.009Z,1.47
2017-06-05T21:38:29.809Z,1.57
2017-06-05T21:41:03.843Z,1.80
2017-06-05T21:43:34.886Z,1.83
2017-06-05T21:46:08.733Z,1.73
2017-06-05T21:48:43.280Z,1.50
2017-06-05T21:51:17.938Z,1.50
2017-06-05T21:53:53.883Z,1.47
2017-06-05T21:56:27.907Z,1.90
2017-06-05T21:59:04.020Z,2.03
2017-06-05T22:01:38.079Z,1.87
2017-06-05T22:04:13.647Z,2.00
2017-06-05T22:06:55.712Z,2.30
2017-06-05T22:09:32.049Z,1.97
2017-06-05T22:12:07.010Z,2.67
2017-06-05T22:14:36.643Z,2.17
2017-06-05T22:17:10.522Z,2.20
2017-06-05T22:19:44.307Z,2.80
2017-06-05T22:25:12.135Z,2.40
2017-06-05T22:27:46.505Z,3.10
2017-06-05T22:30:20.643Z,3.00
2017-06-05T22:32:55.492Z,3.00
2017-06-05T22:35:29.474Z,2.90
2017-06-05T22:38:03.505Z,3.17
2017-06-05T22:40:38.008Z,3.40
2017-06-05T22:43:13.226Z,2.73
2017-06-05T22:45:56.179Z,3.60
2017-06-05T22:48:30.235Z,4.00
2017-06-05T22:51:04.203Z,3.37
2017-06-05T22:53:40.029Z,4.07
2017-06-05T22:56:11.557Z,4.00
2017-06-05T22:58:45.310Z,3.93
2017-06-05T23:01:16.668Z,4.10
2017-06-05T23:03:51.331Z,4.50
2017-06-05T23:06:25.314Z,4.40
2017-06-05T23:08:59.452Z,4.67
2017-06-05T23:11:33.722Z,4.90
2017-06-05T23:14:07.767Z,4.93
2017-06-05T23:16:42.020Z,4.80
2017-06-05T23:19:16.255Z,5.23
2017-06-05T23:21:50.318Z,4.63
2017-06-05T23:24:24.442Z,5.03
2017-06-05T23:26:59.537Z,6.03
2017-06-05T23:29:33.379Z,5.87
2017-06-05T23:32:07.996Z,5.30
2017-06-05T23:35:22.425Z,5.73
2017-06-05T23:37:50.539Z,6.43
2017-06-05T23:40:19.403Z,6.30
2017-06-05T23:42:47.513Z,5.90
2017-06-05T23:45:15.645Z,6.93
2017-06-05T23:47:43.761Z,6.37
2017-06-05T23:50:11.886Z,6.83
2017-06-05T23:52:39.983Z,6.87
2017-06-05T23:55:08.872Z,7.40
2017-06-05T23:57:37.036Z,6.83
